sensor_id;sensor_type;location;lat;lon;timestamp;temperature;humidity
3998;DHT22;61314;53.444;9.902;2023-05-16T11:53:01;13.40;99.90
3998;DHT22;61314;53.444;9.902;2023-05-16T11:55:29;13.40;99.90
3998;DHT22;61314;53.444;9.902;2023-05-16T11:57:59;13.50;99.90
3998;DHT22;61314;53.444;9.902;2023-05-16T12:00:26;13.50;99.90
3998;DHT22;61314;53.444;9.902;2023-05-16T12:03:00;13.60;99.90
3998;DHT22;61314;53.444;9.902;2023-05-16T12:05:28;13.70;99.90
3998;DHT22;61314;53.444;9.902;2023-05-16T12:07:57;13.80;99.90
3998;DHT22;61314;53.444;9.902;2023-05-16T12:10:25;13.90;99.90
3998;DHT22;61314;53.444;9.902;2023-05-16T12:12:53;13.90;99.90
3998;DHT22;61314;53.444;9.902;2023-05-16T12:15:20;13.90;99.90
3998;DHT22;61314;53.444;9.902;2023-05-16T12:17:48;13.90;99.90
3998;DHT22;61314;53.444;9.902;2023-05-16T12:20:15;13.90;99.90
3998;DHT22;61314;53.444;9.902;2023-05-16T12:22:43;13.80;99.90
3998;DHT22;61314;53.444;9.902;2023-05-16T12:25:27;13.70;99.90
3998;DHT22;61314;53.444;9.902;2023-05-16T12:28:00;13.70;99.90
3998;DHT22;61314;53.444;9.902;2023-05-16T12:30:28;13.60;99.90
3998;DHT22;61314;53.444;9.902;2023-05-16T12:33:07;13.60;99.90
3998;DHT22;61314;53.444;9.902;2023-05-16T12:35:37;13.50;99.90
3998;DHT22;61314;53.444;9.902;2023-05-16T12:38:05;13.50;99.90
3998;DHT22;61314;53.444;9.902;2023-05-16T12:40:35;13.40;99.90
3998;DHT22;61314;53.444;9.902;2023-05-16T12:43:02;13.40;99.90
3998;DHT22;61314;53.444;9.902;2023-05-16T12:45:29;13.50;99.90
3998;DHT22;61314;53.444;9.902;2023-05-16T12:47:55;13.50;99.90
3998;DHT22;61314;53.444;9.902;2023-05-16T12:50:25;13.60;99.90
3998;DHT22;61314;53.444;9.902;2023-05-16T12:52:53;13.60;99.90
3998;DHT22;61314;53.444;9.902;2023-05-16T12:55:21;13.60;99.90
3998;DHT22;61314;53.444;9.902;2023-05-16T12:57:48;13.60;99.90
3998;DHT22;61314;53.444;9.902;2023-05-16T13:00:17;13.70;99.90
3998;DHT22;61314;53.444;9.902;2023-05-16T13:02:45;13.60;99.90
3998;DHT22;61314;53.444;9.902;2023-05-16T13:05:12;13.60;99.90
3998;DHT22;61314;53.444;9.902;2023-05-16T13:07:39;13.60;99.90
3998;DHT22;61314;53.444;9.902;2023-05-16T13:10:07;13.50;99.90
3998;DHT22;61314;53.444;9.902;2023-05-16T13:12:36;13.50;99.90
3998;DHT22;61314;53.444;9.902;2023-05-16T13:15:05;13.50;99.90
3998;DHT22;61314;53.444;9.902;2023-05-16T13:17:37;13.50;99.90
3998;DHT22;61314;53.444;9.902;2023-05-16T13:20:04;13.50;99.90
3998;DHT22;61314;53.444;9.902;2023-05-16T13:22:35;13.50;99.90
3998;DHT22;61314;53.444;9.902;2023-05-16T13:25:03;13.50;99.90
3998;DHT22;61314;53.444;9.902;2023-05-16T13:27:30;13.60;99.90
3998;DHT22;61314;53.444;9.902;2023-05-16T13:29:57;13.60;99.90
3998;DHT22;61314;53.444;9.902;2023-05-16T13:32:24;13.60;99.90
3998;DHT22;61314;53.444;9.902;2023-05-16T13:34:51;13.70;99.90
3998;DHT22;61314;53.444;9.902;2023-05-16T13:37:18;13.60;99.90
3998;DHT22;61314;53.444;9.902;2023-05-16T13:39:45;13.60;99.90
3998;DHT22;61314;53.444;9.902;2023-05-16T13:42:11;13.60;99.90
3998;DHT22;61314;53.444;9.902;2023-05-16T13:44:38;13.60;99.90
3998;DHT22;61314;53.444;9.902;2023-05-16T13:47:07;13.60;99.90
3998;DHT22;61314;53.444;9.902;2023-05-16T13:49:34;13.60;99.90
3998;DHT22;61314;53.444;9.902;2023-05-16T13:52:01;13.50;99.90
3998;DHT22;61314;53.444;9.902;2023-05-16T13:54:27;13.50;99.90
3998;DHT22;61314;53.444;9.902;2023-05-16T13:56:54;13.40;99.90
3998;DHT22;61314;53.444;9.902;2023-05-16T13:59:21;13.30;99.90
3998;DHT22;61314;53.444;9.902;2023-05-16T14:02:07;13.20;99.90
3998;DHT22;61314;53.444;9.902;2023-05-16T14:04:34;13.10;99.90
3998;DHT22;61314;53.444;9.902;2023-05-16T14:07:01;13.10;99.90
3998;DHT22;61314;53.444;9.902;2023-05-16T14:09:27;13.00;99.90
3998;DHT22;61314;53.444;9.902;2023-05-16T14:11:54;13.00;99.90
3998;DHT22;61314;53.444;9.902;2023-05-16T14:14:20;12.90;99.90
3998;DHT22;61314;53.444;9.902;2023-05-16T14:16:47;12.90;99.90
3998;DHT22;61314;53.444;9.902;2023-05-16T14:19:14;12.80;99.90
3998;DHT22;61314;53.444;9.902;2023-05-16T14:21:44;12.80;99.90
3998;DHT22;61314;53.444;9.902;2023-05-16T14:24:11;12.80;99.90
3998;DHT22;61314;53.444;9.902;2023-05-16T14:26:38;12.80;99.90
3998;DHT22;61314;53.444;9.902;2023-05-16T14:29:04;12.80;99.90
3998;DHT22;61314;53.444;9.902;2023-05-16T14:31:31;12.80;99.90
3998;DHT22;61314;53.444;9.902;2023-05-16T14:33:58;12.80;99.90
3998;DHT22;61314;53.444;9.902;2023-05-16T14:36:25;12.80;99.90
3998;DHT22;61314;53.444;9.902;2023-05-16T14:38:51;12.80;99.90
3998;DHT22;61314;53.444;9.902;2023-05-16T14:41:18;12.90;99.90
3998;DHT22;61314;53.444;9.902;2023-05-16T14:43:44;12.90;99.90
3998;DHT22;61314;53.444;9.902;2023-05-16T14:46:11;12.90;99.90
3998;DHT22;61314;53.444;9.902;2023-05-16T14:48:38;13.00;99.90
3998;DHT22;61314;53.444;9.902;2023-05-16T14:51:05;13.00;99.90
3998;DHT22;61314;53.444;9.902;2023-05-16T14:53:32;13.00;99.90
3998;DHT22;61314;53.444;9.902;2023-05-16T14:55:59;13.00;99.90
3998;DHT22;61314;53.444;9.902;2023-05-16T14:58:28;13.00;99.90
3998;DHT22;61314;53.444;9.902;2023-05-16T15:00:55;13.00;99.90
3998;DHT22;61314;53.444;9.902;2023-05-16T15:03:22;13.00;99.90
3998;DHT22;61314;53.444;9.902;2023-05-16T15:05:49;13.00;99.90
3998;DHT22;61314;53.444;9.902;2023-05-16T15:08:15;13.10;99.90
3998;DHT22;61314;53.444;9.902;2023-05-16T15:10:42;13.00;99.90
3998;DHT22;61314;53.444;9.902;2023-05-16T15:13:09;13.10;99.90
3998;DHT22;61314;53.444;9.902;2023-05-16T15:15:36;13.10;99.90
3998;DHT22;61314;53.444;9.902;2023-05-16T15:18:04;13.10;99.90
3998;DHT22;61314;53.444;9.902;2023-05-16T15:20:30;13.00;99.90
3998;DHT22;61314;53.444;9.902;2023-05-16T15:22:57;13.00;99.90
3998;DHT22;61314;53.444;9.902;2023-05-16T15:25:24;13.00;99.90
3998;DHT22;61314;53.444;9.902;2023-05-16T15:27:51;13.00;99.90
3998;DHT22;61314;53.444;9.902;2023-05-16T15:30:18;13.00;99.90
3998;DHT22;61314;53.444;9.902;2023-05-16T15:32:44;13.00;99.90
3998;DHT22;61314;53.444;9.902;2023-05-16T15:35:11;13.00;99.90
3998;DHT22;61314;53.444;9.902;2023-05-16T15:37:38;12.90;99.90
3998;DHT22;61314;53.444;9.902;2023-05-16T15:40:05;12.90;99.90
3998;DHT22;61314;53.444;9.902;2023-05-16T15:42:33;12.90;99.90
3998;DHT22;61314;53.444;9.902;2023-05-16T15:45:01;12.90;99.90
3998;DHT22;61314;53.444;9.902;2023-05-16T15:47:28;12.90;99.90
3998;DHT22;61314;53.444;9.902;2023-05-16T15:49:55;12.90;99.90
3998;DHT22;61314;53.444;9.902;2023-05-16T15:52:21;12.90;99.90
3998;DHT22;61314;53.444;9.902;2023-05-16T15:54:48;12.80;99.90
3998;DHT22;61314;53.444;9.902;2023-05-16T15:57:15;12.80;99.90
3998;DHT22;61314;53.444;9.902;2023-05-16T15:59:41;12.80;99.90
3998;DHT22;61314;53.444;9.902;2023-05-16T16:02:08;12.80;99.90
3998;DHT22;61314;53.444;9.902;2023-05-16T16:04:35;12.80;99.90
3998;DHT22;61314;53.444;9.902;2023-05-16T16:07:02;12.80;99.90
3998;DHT22;61314;53.444;9.902;2023-05-16T16:09:28;12.70;99.90
3998;DHT22;61314;53.444;9.902;2023-05-16T16:11:55;12.70;99.90
3998;DHT22;61314;53.444;9.902;2023-05-16T16:14:23;12.60;99.90
3998;DHT22;61314;53.444;9.902;2023-05-16T16:16:50;12.60;99.90
3998;DHT22;61314;53.444;9.902;2023-05-16T16:19:17;12.60;99.90
3998;DHT22;61314;53.444;9.902;2023-05-16T16:21:44;12.50;99.90
3998;DHT22;61314;53.444;9.902;2023-05-16T16:24:10;12.50;99.90
3998;DHT22;61314;53.444;9.902;2023-05-16T16:26:38;12.50;99.90
3998;DHT22;61314;53.444;9.902;2023-05-16T16:29:04;12.40;99.90
3998;DHT22;61314;53.444;9.902;2023-05-16T16:31:31;12.40;99.90
3998;DHT22;61314;53.444;9.902;2023-05-16T16:33:58;12.50;99.90
3998;DHT22;61314;53.444;9.902;2023-05-16T16:36:25;12.50;99.90
3998;DHT22;61314;53.444;9.902;2023-05-16T16:38:52;12.30;99.90
3998;DHT22;61314;53.444;9.902;2023-05-16T16:41:19;12.30;99.90
3998;DHT22;61314;53.444;9.902;2023-05-16T16:43:46;12.30;99.90
3998;DHT22;61314;53.444;9.902;2023-05-16T16:46:12;12.20;99.90
3998;DHT22;61314;53.444;9.902;2023-05-16T16:48:39;12.20;99.90
3998;DHT22;61314;53.444;9.902;2023-05-16T16:51:06;12.20;99.90
3998;DHT22;61314;53.444;9.902;2023-05-16T16:53:32;12.20;99.90
3998;DHT22;61314;53.444;9.902;2023-05-16T16:56:00;12.20;99.90
3998;DHT22;61314;53.444;9.902;2023-05-16T16:58:27;12.20;99.90
3998;DHT22;61314;53.444;9.902;2023-05-16T17:00:53;12.20;99.90
3998;DHT22;61314;53.444;9.902;2023-05-16T17:03:20;12.20;99.90
3998;DHT22;61314;53.444;9.902;2023-05-16T17:05:47;12.30;99.90
3998;DHT22;61314;53.444;9.902;2023-05-16T17:08:13;12.20;99.90
3998;DHT22;61314;53.444;9.902;2023-05-16T17:10:40;12.20;99.90
3998;DHT22;61314;53.444;9.902;2023-05-16T17:13:07;12.20;99.90
3998;DHT22;61314;53.444;9.902;2023-05-16T17:15:36;12.20;99.90
3998;DHT22;61314;53.444;9.902;2023-05-16T17:18:03;12.10;99.90
3998;DHT22;61314;53.444;9.902;2023-05-16T17:20:34;12.20;99.90
3998;DHT22;61314;53.444;9.902;2023-05-16T17:23:01;12.20;99.90
3998;DHT22;61314;53.444;9.902;2023-05-16T17:25:28;12.20;99.90
3998;DHT22;61314;53.444;9.902;2023-05-16T17:27:55;12.10;99.90
3998;DHT22;61314;53.444;9.902;2023-05-16T17:30:22;12.10;99.90
3998;DHT22;61314;53.444;9.902;2023-05-16T17:32:49;12.10;99.90
3998;DHT22;61314;53.444;9.902;2023-05-16T17:35:15;12.10;99.90
3998;DHT22;61314;53.444;9.902;2023-05-16T17:37:42;12.00;99.90
3998;DHT22;61314;53.444;9.902;2023-05-16T17:40:09;12.00;99.90
3998;DHT22;61314;53.444;9.902;2023-05-16T17:42:41;11.90;99.90
3998;DHT22;61314;53.444;9.902;2023-05-16T17:59:59;11.70;99.90
3998;DHT22;61314;53.444;9.902;2023-05-16T18:02:26;11.80;99.90
3998;DHT22;61314;53.444;9.902;2023-05-16T18:04:53;11.70;99.90
3998;DHT22;61314;53.444;9.902;2023-05-16T18:19:38;11.40;99.90
3998;DHT22;61314;53.444;9.902;2023-05-16T18:22:05;11.40;99.90
3998;DHT22;61314;53.444;9.902;2023-05-16T18:24:33;11.40;99.90
3998;DHT22;61314;53.444;9.902;2023-05-16T18:27:00;11.30;99.90
3998;DHT22;61314;53.444;9.902;2023-05-16T18:29:28;11.30;99.90
3998;DHT22;61314;53.444;9.902;2023-05-16T18:31:56;11.30;99.90
3998;DHT22;61314;53.444;9.902;2023-05-16T18:34:25;11.30;99.90
3998;DHT22;61314;53.444;9.902;2023-05-16T18:36:52;11.30;99.90
3998;DHT22;61314;53.444;9.902;2023-05-16T18:39:18;11.30;99.90
3998;DHT22;61314;53.444;9.902;2023-05-16T18:41:46;11.30;99.90
3998;DHT22;61314;53.444;9.902;2023-05-16T18:44:14;11.20;99.90
3998;DHT22;61314;53.444;9.902;2023-05-16T18:46:44;11.20;99.90
3998;DHT22;61314;53.444;9.902;2023-05-16T18:49:12;11.20;99.90
3998;DHT22;61314;53.444;9.902;2023-05-16T18:51:39;11.20;99.90
3998;DHT22;61314;53.444;9.902;2023-05-16T18:54:06;11.20;99.90
3998;DHT22;61314;53.444;9.902;2023-05-16T18:56:32;11.20;99.90
3998;DHT22;61314;53.444;9.902;2023-05-16T18:58:59;11.20;99.90
3998;DHT22;61314;53.444;9.902;2023-05-16T19:01:26;11.10;99.90
3998;DHT22;61314;53.444;9.902;2023-05-16T19:03:53;11.10;99.90
3998;DHT22;61314;53.444;9.902;2023-05-16T19:06:19;11.10;99.90
3998;DHT22;61314;53.444;9.902;2023-05-16T19:08:46;11.10;99.90
3998;DHT22;61314;53.444;9.902;2023-05-16T19:11:15;11.10;99.90
3998;DHT22;61314;53.444;9.902;2023-05-16T19:16:09;11.00;99.90
3998;DHT22;61314;53.444;9.902;2023-05-16T19:18:36;11.00;99.90
3998;DHT22;61314;53.444;9.902;2023-05-16T19:21:03;11.10;99.90
3998;DHT22;61314;53.444;9.902;2023-05-16T19:23:30;11.00;99.90
3998;DHT22;61314;53.444;9.902;2023-05-16T19:25:57;11.00;99.90
3998;DHT22;61314;53.444;9.902;2023-05-16T19:28:23;10.70;99.90
